KCNI

Cherokee County Airport

Canton, Georgia, USA
METAR KCNI 141315Z AUTO 00000KT 10SM CLR 22/18 A3010 RMK AO2
Observed Flight Rules
Aug-14 @ 13:15 UTC (27 minutes ago) Visual Flight Rules
Visibility Clouds
10 miles
  • Clear skies
Temperatures Readings
Current 22°C / 72°F
Dewpoint 18°C / 64°F
Humidity 78%
Altimeter 30.1" Hg
Pressure 1019 hPa
Elevation 372
METAR KCNI 141315Z AUTO 00000KT 10SM CLR 22/18 A3010 RMK AO2
Observed Flight Rules
Aug-14 @ 13:15 UTC
(27 minutes ago)
VFR
Clouds
  • Clear skies
Temperature Dewpoint
22°C / 72°F 18°C / 64°F
Humidity Altimeter Pressure
78% 30.1" Hg 1019 hPa